aviador You're here:

SBPA Decoded Metar

PORTO ALEGRE in BRAZIL
Report Time2017-10-22 17:00:00
UTC Time2017-10-22 17:11:11
Flight Rules vfr VFR
Wind290° at 16 kt
W.Decomp.*RWY 29: 15.4 kt HW 4.4 kt RCW
W.Rank290° ranks 7
Current wind is above 290° avg. (7.6)
Visibility9999 m
Phenomena:N/A
Clouds:Few 040 Hf
Expected CloudBase > 4,800 ft AGL from Temp-Dew spread
CeilingNone
Temp20°C (ISA +5)
Dew Point08°C (46% RH)
AAT13.8°C
QNH1018 hPa
Density Alt574 ft
Elevation10 ft
Report Wrong Elevation
Raw Report
SBPA 221700Z 29016KT 260V320 9999 FEW040 20/08 Q1018=

Extra information for SBPA:More info

Metar Taf Metar & Taf Last 4 Metars F.Rules Stats Wind Profile Meteogram Temp Stats Airport Information Weather charts Add Link Nearby VenuesMetar ALERT Operation Metar Decoded Social comments